createdAt,value
2023-03-19T00:00:29.940Z,28.40
2023-03-19T00:01:29.946Z,25.90
2023-03-19T00:02:29.969Z,25.90
2023-03-19T00:03:29.929Z,28.40
2023-03-19T00:04:29.893Z,27.90
2023-03-19T00:05:29.884Z,26.70
2023-03-19T00:06:29.901Z,26.70
2023-03-19T00:07:29.857Z,27.10
2023-03-19T00:08:29.854Z,25.80
2023-03-19T00:09:29.837Z,27.40
2023-03-19T00:10:29.834Z,25.90
2023-03-19T00:11:29.845Z,22.60
2023-03-19T00:12:29.807Z,26.90
2023-03-19T00:13:29.793Z,24.00
2023-03-19T00:14:29.792Z,25.40
2023-03-19T00:15:29.775Z,24.40
2023-03-19T00:16:29.860Z,25.80
2023-03-19T00:17:29.744Z,26.80
2023-03-19T00:18:29.744Z,24.30
2023-03-19T00:19:29.726Z,24.20
2023-03-19T00:20:29.728Z,21.20
2023-03-19T00:21:30.750Z,26.80
2023-03-19T00:22:29.708Z,22.00
2023-03-19T00:23:29.685Z,24.90
2023-03-19T00:24:29.671Z,24.60
2023-03-19T00:25:29.664Z,23.10
2023-03-19T00:26:29.667Z,23.30
2023-03-19T00:27:29.641Z,23.80
2023-03-19T00:28:29.623Z,22.70
2023-03-19T00:29:29.617Z,22.90
2023-03-19T00:30:29.644Z,22.90
2023-03-19T00:31:29.626Z,23.10
2023-03-19T00:32:29.743Z,23.70
2023-03-19T00:33:29.584Z,25.50
2023-03-19T00:34:29.559Z,21.80
2023-03-19T00:35:29.549Z,24.40
2023-03-19T00:36:29.557Z,25.00
2023-03-19T00:37:29.545Z,23.10
2023-03-19T00:38:29.516Z,23.00
2023-03-19T00:39:29.534Z,25.80
2023-03-19T00:40:29.514Z,21.80
2023-03-19T00:41:29.508Z,20.40
2023-03-19T00:42:29.480Z,25.30
2023-03-19T00:43:29.467Z,22.30
2023-03-19T00:44:29.457Z,21.40
2023-03-19T00:45:29.450Z,22.20
2023-03-19T00:46:29.510Z,25.00
2023-03-19T00:47:29.429Z,24.30
2023-03-19T00:48:29.420Z,23.80
2023-03-19T00:49:29.403Z,22.40
2023-03-19T00:50:29.376Z,22.30
2023-03-19T00:51:29.395Z,23.00
2023-03-19T00:52:29.362Z,23.30
2023-03-19T00:53:29.348Z,22.00
2023-03-19T00:54:29.331Z,23.30
2023-03-19T00:55:29.343Z,21.50
2023-03-19T00:56:29.330Z,21.80
2023-03-19T00:57:29.337Z,21.40
2023-03-19T00:58:29.293Z,24.80
2023-03-19T00:59:29.298Z,22.70
2023-03-19T01:00:29.269Z,22.40
2023-03-19T01:01:29.349Z,25.10
2023-03-19T01:02:29.250Z,26.30
2023-03-19T01:03:29.237Z,21.70
2023-03-19T01:04:29.253Z,22.50
2023-03-19T01:05:29.213Z,22.80
2023-03-19T01:06:29.210Z,22.50
2023-03-19T01:07:29.216Z,23.10
2023-03-19T01:08:29.176Z,24.10
2023-03-19T01:09:29.165Z,22.20
2023-03-19T01:10:29.168Z,21.70
2023-03-19T01:11:29.145Z,21.40
2023-03-19T01:12:29.155Z,21.10
2023-03-19T01:13:29.119Z,22.40
2023-03-19T01:14:29.107Z,21.50
2023-03-19T01:15:29.104Z,23.20
2023-03-19T01:16:29.088Z,22.30
2023-03-19T01:17:29.100Z,21.60
2023-03-19T01:18:29.065Z,21.50
2023-03-19T01:19:29.054Z,23.00
2023-03-19T01:20:29.049Z,22.50
2023-03-19T01:21:29.053Z,21.30
2023-03-19T01:22:29.041Z,21.40
2023-03-19T01:23:29.012Z,21.90
2023-03-19T01:24:29.007Z,23.10
2023-03-19T01:25:28.991Z,21.80
2023-03-19T01:26:28.988Z,21.70
2023-03-19T01:27:28.986Z,22.30
2023-03-19T01:28:28.955Z,21.20
2023-03-19T01:29:28.962Z,21.00
2023-03-19T01:30:28.932Z,24.30
2023-03-19T01:31:29.064Z,22.10
2023-03-19T01:32:28.923Z,20.60
2023-03-19T01:33:28.899Z,19.20
2023-03-19T01:34:28.884Z,20.40
2023-03-19T01:35:28.886Z,21.20
2023-03-19T01:36:28.860Z,20.50
2023-03-19T01:37:28.873Z,20.60
2023-03-19T01:38:28.837Z,21.60
2023-03-19T01:39:28.825Z,21.20
2023-03-19T01:40:28.809Z,22.10
2023-03-19T01:41:28.806Z,21.30
2023-03-19T01:42:28.815Z,22.50
2023-03-19T01:43:28.787Z,21.00
2023-03-19T01:44:28.768Z,21.10
2023-03-19T01:45:28.764Z,23.70
2023-03-19T01:46:28.851Z,23.60
2023-03-19T01:47:28.757Z,22.90
2023-03-19T01:48:28.730Z,22.10
2023-03-19T01:49:28.720Z,23.00
2023-03-19T01:50:28.708Z,22.90
2023-03-19T01:51:28.692Z,20.80
2023-03-19T01:52:28.702Z,21.60
2023-03-19T01:53:28.678Z,22.20
2023-03-19T01:54:28.664Z,22.00
2023-03-19T01:55:28.650Z,22.80
2023-03-19T01:56:28.637Z,23.70
2023-03-19T01:57:28.656Z,26.10
2023-03-19T01:58:28.640Z,23.90
2023-03-19T01:59:28.607Z,22.40
2023-03-19T02:00:28.605Z,21.10
2023-03-19T02:01:28.590Z,21.30
2023-03-19T02:02:28.577Z,20.70
2023-03-19T02:03:28.582Z,20.50
2023-03-19T02:04:28.580Z,19.30
2023-03-19T02:05:28.536Z,19.10
2023-03-19T02:06:28.522Z,18.70
2023-03-19T02:07:28.518Z,20.50
2023-03-19T02:08:28.533Z,21.30
2023-03-19T02:09:28.497Z,24.00
2023-03-19T02:10:28.476Z,22.40
2023-03-19T02:11:28.483Z,21.20
2023-03-19T02:12:28.457Z,22.40
2023-03-19T02:13:28.545Z,19.70
2023-03-19T02:14:28.482Z,19.10
2023-03-19T02:15:28.428Z,21.00
2023-03-19T02:16:28.445Z,22.70
2023-03-19T02:17:28.402Z,20.60
2023-03-19T02:18:28.401Z,22.90
2023-03-19T02:19:28.402Z,27.50
2023-03-19T02:20:28.366Z,22.30
2023-03-19T02:21:28.366Z,21.60
2023-03-19T02:22:28.344Z,21.10
2023-03-19T02:23:28.339Z,21.80
2023-03-19T02:24:28.349Z,20.80
2023-03-19T02:25:28.310Z,20.10
2023-03-19T02:26:28.315Z,22.40
2023-03-19T02:27:28.288Z,21.50
2023-03-19T02:28:28.278Z,21.00
2023-03-19T02:29:28.278Z,19.80
2023-03-19T02:30:28.280Z,20.40
2023-03-19T02:31:28.344Z,23.20
2023-03-19T02:32:28.235Z,20.80
2023-03-19T02:33:28.225Z,21.60
2023-03-19T02:34:28.209Z,19.50
2023-03-19T02:35:28.200Z,18.70
2023-03-19T02:36:28.205Z,19.80
2023-03-19T02:37:28.191Z,19.10
2023-03-19T02:38:28.175Z,18.00
2023-03-19T02:39:28.153Z,19.10
2023-03-19T02:40:28.145Z,20.10
2023-03-19T02:41:28.162Z,20.20
2023-03-19T02:42:28.121Z,20.10
2023-03-19T02:43:28.125Z,20.60
2023-03-19T02:44:28.101Z,20.60
2023-03-19T02:45:28.089Z,19.90
2023-03-19T02:46:28.150Z,18.70
2023-03-19T02:47:28.092Z,20.10
2023-03-19T02:48:28.056Z,19.80
2023-03-19T02:49:28.045Z,19.20
2023-03-19T02:50:28.031Z,20.30
2023-03-19T02:51:28.029Z,19.40
2023-03-19T02:52:28.306Z,21.30
2023-03-19T02:53:27.999Z,19.60
2023-03-19T02:54:27.987Z,20.80
2023-03-19T02:55:27.978Z,19.60
2023-03-19T02:56:27.961Z,19.50
2023-03-19T02:57:27.955Z,19.90
2023-03-19T02:58:27.959Z,20.40
2023-03-19T02:59:27.929Z,18.60
2023-03-19T03:00:27.970Z,18.60
2023-03-19T03:01:27.918Z,18.40
2023-03-19T03:02:27.945Z,19.10
2023-03-19T03:03:27.899Z,19.40
2023-03-19T03:04:27.911Z,20.00
2023-03-19T03:05:27.871Z,18.60
2023-03-19T03:06:27.862Z,21.40
2023-03-19T03:07:27.853Z,19.20
2023-03-19T03:08:27.835Z,22.60
2023-03-19T03:09:27.825Z,21.90
2023-03-19T03:10:27.832Z,22.80
2023-03-19T03:11:27.804Z,19.80
2023-03-19T03:12:27.786Z,19.90
2023-03-19T03:13:27.796Z,20.10
2023-03-19T03:14:27.764Z,19.80
2023-03-19T03:15:27.784Z,22.40
2023-03-19T03:16:27.814Z,18.90
2023-03-19T03:17:27.741Z,19.90
2023-03-19T03:18:27.738Z,19.40
2023-03-19T03:19:27.714Z,20.20
2023-03-19T03:20:27.733Z,20.80
2023-03-19T03:21:27.726Z,20.40
2023-03-19T03:22:27.687Z,20.00
2023-03-19T03:23:27.702Z,23.00
2023-03-19T03:24:27.660Z,18.10
2023-03-19T03:25:27.661Z,19.40
2023-03-19T03:26:27.641Z,22.10
2023-03-19T03:27:27.647Z,17.40
2023-03-19T03:28:27.636Z,16.70
2023-03-19T03:29:27.608Z,17.10
2023-03-19T03:30:27.613Z,19.30
2023-03-19T03:31:27.661Z,22.00
2023-03-19T03:32:27.612Z,18.20
2023-03-19T03:33:27.568Z,20.60
2023-03-19T03:34:27.567Z,20.20
2023-03-19T03:35:27.605Z,22.90
2023-03-19T03:36:27.541Z,19.40
2023-03-19T03:37:27.518Z,18.70
2023-03-19T03:38:27.539Z,16.40
2023-03-19T03:39:27.501Z,22.90
2023-03-19T03:40:27.503Z,22.50
2023-03-19T03:41:27.473Z,16.40
2023-03-19T03:42:27.463Z,20.60
2023-03-19T03:43:27.455Z,18.60
2023-03-19T03:44:27.471Z,23.60
2023-03-19T03:45:27.430Z,23.90
2023-03-19T03:46:27.424Z,24.10
2023-03-19T03:47:27.408Z,21.00
2023-03-19T03:48:27.396Z,18.70
2023-03-19T03:49:27.414Z,19.20
2023-03-19T03:50:27.384Z,22.00
2023-03-19T03:51:27.360Z,21.20
2023-03-19T03:52:27.355Z,23.30
2023-03-19T03:53:27.347Z,22.60
2023-03-19T03:54:27.332Z,21.40
2023-03-19T03:55:27.763Z,21.30
2023-03-19T03:56:27.311Z,20.30
2023-03-19T03:57:27.290Z,20.30
2023-03-19T03:58:27.288Z,22.50
2023-03-19T03:59:27.271Z,23.70
2023-03-19T04:00:27.263Z,20.50
2023-03-19T04:01:27.279Z,19.60
2023-03-19T04:02:27.257Z,20.80
2023-03-19T04:03:27.296Z,22.80
2023-03-19T04:04:27.215Z,22.70
2023-03-19T04:05:27.212Z,24.00
2023-03-19T04:06:27.251Z,20.60
2023-03-19T04:07:27.188Z,23.60
2023-03-19T04:08:27.176Z,22.40
2023-03-19T04:09:27.167Z,22.10
2023-03-19T04:10:27.161Z,20.80
2023-03-19T04:11:27.140Z,20.80
2023-03-19T04:12:27.170Z,20.90
2023-03-19T04:13:27.110Z,20.20
2023-03-19T04:14:27.103Z,19.00
2023-03-19T04:15:27.098Z,19.80
2023-03-19T04:16:27.153Z,20.00
2023-03-19T04:17:27.114Z,19.90
2023-03-19T04:18:27.070Z,20.80
2023-03-19T04:19:27.073Z,21.60
2023-03-19T04:20:27.046Z,21.00
2023-03-19T04:21:27.025Z,21.70
2023-03-19T04:22:27.049Z,23.10
2023-03-19T04:23:27.006Z,21.20
2023-03-19T04:24:26.996Z,21.80
2023-03-19T04:25:26.996Z,21.40
2023-03-19T04:26:26.975Z,20.30
2023-03-19T04:27:26.979Z,25.80
2023-03-19T04:28:26.977Z,22.00
2023-03-19T04:29:26.936Z,22.90
2023-03-19T04:30:26.953Z,26.10
2023-03-19T04:31:27.123Z,22.90
2023-03-19T04:32:26.904Z,21.70
2023-03-19T04:33:26.914Z,20.50
2023-03-19T04:34:26.918Z,22.80
2023-03-19T04:35:26.901Z,24.80
2023-03-19T04:36:26.871Z,24.70
2023-03-19T04:37:26.851Z,23.60
2023-03-19T04:38:26.835Z,23.70
2023-03-19T04:39:26.866Z,22.20
2023-03-19T04:40:26.811Z,27.00
2023-03-19T04:41:26.804Z,28.60
2023-03-19T04:42:26.791Z,23.50
2023-03-19T04:43:26.781Z,23.50
2023-03-19T04:44:26.767Z,29.20
2023-03-19T04:45:26.785Z,23.90
2023-03-19T04:46:26.795Z,22.90
2023-03-19T04:47:26.738Z,26.50
2023-03-19T04:48:26.732Z,23.60
2023-03-19T04:49:26.733Z,25.20
2023-03-19T04:50:26.728Z,23.70
2023-03-19T04:51:26.706Z,25.30
2023-03-19T04:52:26.682Z,24.20
2023-03-19T04:53:26.669Z,19.80
2023-03-19T04:54:26.661Z,26.40
2023-03-19T04:55:26.660Z,26.80
2023-03-19T04:56:27.015Z,28.80
2023-03-19T04:57:26.628Z,23.10
2023-03-19T04:58:26.609Z,30.10
2023-03-19T04:59:26.605Z,28.80
2023-03-19T05:00:26.601Z,23.90
2023-03-19T05:01:26.594Z,24.80
2023-03-19T05:02:26.588Z,28.80
2023-03-19T05:03:26.616Z,28.30
2023-03-19T05:04:26.541Z,24.40
2023-03-19T05:05:26.535Z,29.30
2023-03-19T05:06:26.527Z,24.50
2023-03-19T05:07:26.535Z,26.10
2023-03-19T05:08:26.502Z,27.30
2023-03-19T05:09:26.498Z,24.40
2023-03-19T05:10:26.504Z,24.80
2023-03-19T05:11:26.473Z,27.90
2023-03-19T05:12:26.493Z,27.00
2023-03-19T05:13:26.452Z,30.80
2023-03-19T05:14:26.443Z,29.90
2023-03-19T05:15:26.425Z,23.60
2023-03-19T05:16:26.411Z,25.60
2023-03-19T05:17:26.401Z,29.00
2023-03-19T05:18:26.432Z,24.90
2023-03-19T05:19:26.404Z,31.90
2023-03-19T05:20:26.363Z,32.20
2023-03-19T05:21:26.361Z,29.80
2023-03-19T05:22:26.350Z,29.40
2023-03-19T05:23:26.338Z,28.60
2023-03-19T05:24:26.347Z,30.70
2023-03-19T05:25:26.318Z,28.40
2023-03-19T05:26:26.326Z,28.60
2023-03-19T05:27:26.296Z,26.10
2023-03-19T05:28:26.278Z,25.00
2023-03-19T05:29:26.274Z,25.10
2023-03-19T05:30:26.281Z,25.30
2023-03-19T05:31:26.324Z,24.70
2023-03-19T05:32:26.238Z,25.40
2023-03-19T05:33:26.224Z,24.80
2023-03-19T05:34:26.214Z,25.10
2023-03-19T05:35:26.261Z,30.30
2023-03-19T05:36:26.191Z,25.80
2023-03-19T05:37:26.185Z,24.90
2023-03-19T05:38:26.162Z,27.30
2023-03-19T05:39:26.154Z,26.90
2023-03-19T05:40:26.173Z,28.10
2023-03-19T05:41:26.136Z,30.80
2023-03-19T05:42:26.118Z,26.60
2023-03-19T05:43:26.118Z,29.20
2023-03-19T05:44:26.100Z,28.70
2023-03-19T05:45:26.087Z,30.70
2023-03-19T05:46:26.140Z,24.90
2023-03-19T05:47:26.068Z,25.40
2023-03-19T05:48:26.071Z,27.50
2023-03-19T05:49:26.068Z,26.30
2023-03-19T05:50:26.031Z,30.30
2023-03-19T05:51:26.034Z,28.00
2023-03-19T05:52:26.034Z,31.60
2023-03-19T05:53:26.002Z,30.70
2023-03-19T05:54:25.983Z,29.70
2023-03-19T05:55:25.987Z,30.00
2023-03-19T05:56:25.966Z,27.40
2023-03-19T05:57:25.952Z,26.20
2023-03-19T05:58:25.969Z,25.40
2023-03-19T05:59:25.969Z,27.60
2023-03-19T06:00:25.916Z,24.50
2023-03-19T06:01:25.954Z,25.80
2023-03-19T06:02:25.959Z,24.60
2023-03-19T06:03:25.915Z,23.90
2023-03-19T06:04:25.994Z,23.70
2023-03-19T06:05:25.870Z,24.10
2023-03-19T06:06:25.853Z,24.40
2023-03-19T06:07:25.845Z,22.20
2023-03-19T06:08:25.861Z,25.50
2023-03-19T06:09:25.824Z,25.00
2023-03-19T06:10:25.833Z,25.80
2023-03-19T06:11:25.804Z,23.70
2023-03-19T06:12:25.811Z,24.00
2023-03-19T06:13:25.856Z,21.30
2023-03-19T06:14:25.938Z,19.80
2023-03-19T06:15:25.754Z,19.20
2023-03-19T06:16:25.767Z,17.60
2023-03-19T06:17:25.774Z,20.50
2023-03-19T06:18:25.717Z,18.20
2023-03-19T06:19:25.734Z,17.70
2023-03-19T06:20:25.697Z,17.10
2023-03-19T06:21:25.702Z,15.20
2023-03-19T06:22:25.717Z,15.30
2023-03-19T06:23:25.662Z,14.90
2023-03-19T06:24:25.668Z,16.30
2023-03-19T06:25:25.639Z,16.90
2023-03-19T06:26:25.626Z,16.10
2023-03-19T06:27:25.622Z,16.40
2023-03-19T06:28:25.605Z,16.00
2023-03-19T06:29:25.619Z,15.90
2023-03-19T06:30:25.608Z,16.40
2023-03-19T06:31:25.600Z,17.60
2023-03-19T06:32:25.564Z,16.60
2023-03-19T06:33:25.558Z,15.20
2023-03-19T06:34:25.587Z,16.20
2023-03-19T06:35:25.594Z,15.90
2023-03-19T06:36:25.515Z,16.70
2023-03-19T06:37:25.548Z,17.10
2023-03-19T06:38:25.497Z,19.10
2023-03-19T06:39:25.511Z,17.00
2023-03-19T06:40:25.479Z,16.90
2023-03-19T06:41:25.477Z,16.10
2023-03-19T06:42:25.491Z,14.00
2023-03-19T06:43:25.451Z,15.30
2023-03-19T06:44:25.488Z,14.70
2023-03-19T06:45:25.423Z,14.50
2023-03-19T06:46:25.414Z,15.60
2023-03-19T06:47:25.405Z,15.50
2023-03-19T06:48:25.406Z,15.70
2023-03-19T06:49:25.381Z,15.50
2023-03-19T06:50:25.360Z,15.50
2023-03-19T06:51:25.356Z,14.80
2023-03-19T06:52:25.358Z,15.30
2023-03-19T06:53:25.358Z,15.00
2023-03-19T06:54:25.319Z,15.10
2023-03-19T06:55:25.332Z,16.10
2023-03-19T06:56:25.297Z,15.50
2023-03-19T06:57:25.306Z,15.60
2023-03-19T06:58:25.328Z,15.20
2023-03-19T06:59:25.274Z,14.50
2023-03-19T07:00:25.257Z,15.10
2023-03-19T07:01:25.360Z,16.30
2023-03-19T07:02:25.247Z,14.90
2023-03-19T07:03:25.251Z,15.40
2023-03-19T07:04:25.220Z,14.80
2023-03-19T07:05:25.215Z,14.60
2023-03-19T07:06:25.183Z,14.60
2023-03-19T07:07:25.175Z,14.40
2023-03-19T07:08:25.195Z,14.90
2023-03-19T07:09:25.158Z,13.60
2023-03-19T07:10:25.138Z,15.00
2023-03-19T07:11:25.137Z,15.80
2023-03-19T07:12:25.117Z,15.90
2023-03-19T07:13:25.132Z,14.40
2023-03-19T07:14:25.104Z,15.00
2023-03-19T07:15:25.089Z,12.60
2023-03-19T07:16:25.122Z,14.20
2023-03-19T07:17:25.072Z,12.50
2023-03-19T07:18:25.070Z,14.40
2023-03-19T07:19:25.042Z,13.60
2023-03-19T07:20:25.028Z,14.10
2023-03-19T07:21:25.024Z,14.00
2023-03-19T07:22:25.026Z,14.30
2023-03-19T07:23:25.019Z,14.70
2023-03-19T07:24:24.983Z,13.90
2023-03-19T07:25:24.973Z,15.10
2023-03-19T07:26:24.963Z,16.20
2023-03-19T07:27:24.958Z,15.90
2023-03-19T07:28:24.963Z,15.00
2023-03-19T07:29:24.958Z,14.80
2023-03-19T07:30:24.919Z,14.90
2023-03-19T07:31:24.987Z,14.80
2023-03-19T07:32:24.900Z,15.90
2023-03-19T07:33:24.913Z,15.00
2023-03-19T07:34:24.886Z,15.60
2023-03-19T07:35:24.935Z,14.70
2023-03-19T07:36:24.845Z,15.80
2023-03-19T07:37:24.848Z,14.70
2023-03-19T07:38:24.824Z,14.90
2023-03-19T07:39:24.822Z,14.90
2023-03-19T07:40:24.832Z,14.60
2023-03-19T07:41:24.799Z,14.50
2023-03-19T07:42:24.798Z,14.70
2023-03-19T07:43:24.780Z,14.50
2023-03-19T07:44:24.774Z,14.80
2023-03-19T07:45:24.758Z,14.90
2023-03-19T07:46:24.766Z,14.40
2023-03-19T07:47:29.292Z,14.60
2023-03-19T07:48:24.710Z,15.30
2023-03-19T07:49:24.706Z,15.60
2023-03-19T07:50:24.694Z,15.10
2023-03-19T07:51:24.700Z,17.20
2023-03-19T07:52:24.696Z,15.30
2023-03-19T07:53:24.670Z,16.30
2023-03-19T07:54:24.654Z,16.20
2023-03-19T07:55:24.644Z,15.80
2023-03-19T07:56:24.620Z,15.60
2023-03-19T07:57:24.645Z,15.20
2023-03-19T07:58:24.601Z,15.70
2023-03-19T07:59:24.593Z,15.90
2023-03-19T08:00:24.582Z,15.90
2023-03-19T08:01:24.584Z,16.40
2023-03-19T08:02:24.588Z,16.70
2023-03-19T08:03:25.032Z,16.20
2023-03-19T08:04:24.576Z,16.10
2023-03-19T08:05:24.526Z,17.00
2023-03-19T08:06:24.506Z,16.10
2023-03-19T08:07:24.713Z,15.60
2023-03-19T08:08:24.490Z,14.10
2023-03-19T08:09:24.508Z,13.70
2023-03-19T08:10:24.468Z,14.00
2023-03-19T08:11:24.468Z,14.50
2023-03-19T08:12:24.446Z,14.40
2023-03-19T08:13:24.436Z,14.00
2023-03-19T08:14:24.455Z,14.60
2023-03-19T08:15:24.422Z,14.20
2023-03-19T08:16:24.424Z,13.50
2023-03-19T08:17:24.401Z,12.90
2023-03-19T08:18:24.373Z,13.00
2023-03-19T08:19:24.368Z,14.10
2023-03-19T08:20:24.381Z,13.60
2023-03-19T08:21:24.409Z,12.80
2023-03-19T08:22:24.354Z,13.50
2023-03-19T08:23:24.330Z,13.00
2023-03-19T08:24:24.305Z,12.10
2023-03-19T08:25:24.301Z,11.50
2023-03-19T08:26:24.318Z,11.50
2023-03-19T08:27:24.279Z,10.80
2023-03-19T08:28:24.264Z,10.80
2023-03-19T08:29:24.258Z,10.80
2023-03-19T08:30:24.266Z,11.50
2023-03-19T08:31:24.278Z,11.20
2023-03-19T08:32:24.220Z,11.20
2023-03-19T08:33:24.219Z,11.70
2023-03-19T08:34:24.196Z,11.90
2023-03-19T08:35:24.186Z,12.20
2023-03-19T08:36:24.176Z,11.80
2023-03-19T08:37:24.191Z,11.50
2023-03-19T08:38:24.179Z,12.00
2023-03-19T08:39:24.165Z,11.80
2023-03-19T08:40:24.137Z,12.20
2023-03-19T08:41:24.140Z,11.60
2023-03-19T08:42:24.128Z,10.90
2023-03-19T08:43:24.099Z,10.60
2023-03-19T08:44:24.085Z,11.90
2023-03-19T08:45:24.079Z,10.90
2023-03-19T08:46:24.395Z,11.30
2023-03-19T08:47:24.085Z,10.40
2023-03-19T08:48:24.038Z,11.00
2023-03-19T08:49:24.031Z,11.50
2023-03-19T08:50:24.013Z,11.50
2023-03-19T08:51:24.003Z,12.60
2023-03-19T08:52:23.993Z,12.10
2023-03-19T08:53:24.015Z,12.40
2023-03-19T08:54:23.974Z,11.80
2023-03-19T08:55:23.966Z,11.30
2023-03-19T08:56:23.949Z,11.30
2023-03-19T08:57:23.940Z,11.40
2023-03-19T08:58:23.929Z,11.40
2023-03-19T08:59:23.938Z,11.10
2023-03-19T09:00:23.912Z,11.70
2023-03-19T09:01:23.948Z,11.30
2023-03-19T09:02:23.886Z,11.90
2023-03-19T09:03:23.864Z,12.50
2023-03-19T09:04:24.222Z,14.60
2023-03-19T09:05:23.870Z,16.50
2023-03-19T09:06:23.839Z,14.90
2023-03-19T09:07:23.821Z,15.50
2023-03-19T09:08:23.815Z,14.10
2023-03-19T09:09:23.803Z,13.40
2023-03-19T09:10:23.823Z,14.00
2023-03-19T09:11:23.817Z,15.50
2023-03-19T09:12:23.765Z,16.10
2023-03-19T09:13:23.765Z,17.80
2023-03-19T09:14:23.826Z,19.60
2023-03-19T09:15:23.733Z,20.20
2023-03-19T09:16:23.818Z,21.00
2023-03-19T09:17:23.713Z,20.90
2023-03-19T09:18:23.708Z,20.40
2023-03-19T09:19:23.766Z,20.40
2023-03-19T09:20:23.719Z,19.40
2023-03-19T09:21:23.664Z,21.40
2023-03-19T09:22:23.699Z,23.20
2023-03-19T09:23:23.645Z,23.70
2023-03-19T09:24:23.649Z,25.10
2023-03-19T09:25:23.638Z,28.60
2023-03-19T09:26:23.614Z,28.50
2023-03-19T09:27:23.633Z,28.90
2023-03-19T09:28:23.608Z,28.70
2023-03-19T09:29:23.569Z,27.20
2023-03-19T09:30:23.623Z,27.50
2023-03-19T09:31:23.578Z,26.80
2023-03-19T09:32:23.546Z,27.10
2023-03-19T09:33:23.560Z,27.80
2023-03-19T09:34:23.532Z,28.50
2023-03-19T09:35:23.509Z,29.00
2023-03-19T09:36:23.510Z,30.00
2023-03-19T09:37:23.492Z,31.90
2023-03-19T09:38:23.489Z,31.10
2023-03-19T09:39:23.490Z,33.70
2023-03-19T09:40:23.458Z,36.10
2023-03-19T09:41:23.439Z,34.90
2023-03-19T09:42:23.422Z,34.90
2023-03-19T09:43:23.411Z,37.80
2023-03-19T09:44:23.422Z,39.10
2023-03-19T09:45:23.384Z,39.60
2023-03-19T09:46:23.450Z,40.00
2023-03-19T09:47:23.381Z,40.90
2023-03-19T09:48:23.358Z,40.10
2023-03-19T09:49:23.392Z,39.80
2023-03-19T09:50:23.349Z,38.90
2023-03-19T09:51:23.314Z,40.10
2023-03-19T09:52:23.319Z,36.30
2023-03-19T09:53:23.318Z,36.70
2023-03-19T09:54:23.302Z,36.40
2023-03-19T09:55:23.307Z,36.20
2023-03-19T09:56:23.272Z,36.10
2023-03-19T09:59:47.710Z,36.50
2023-03-19T10:00:48.668Z,37.20
2023-03-19T10:01:48.720Z,37.40
2023-03-19T10:02:48.643Z,37.40
2023-03-19T10:03:48.679Z,38.60
2023-03-19T10:04:48.662Z,38.80
2023-03-19T10:05:48.677Z,37.50
2023-03-19T10:06:48.599Z,38.40
2023-03-19T10:07:48.596Z,38.00
2023-03-19T10:08:48.600Z,37.90
2023-03-19T10:09:48.567Z,38.00
2023-03-19T10:10:48.591Z,36.90
2023-03-19T10:11:48.560Z,36.90
2023-03-19T10:12:48.541Z,36.50
2023-03-19T10:13:48.525Z,36.40
2023-03-19T10:14:48.513Z,35.20
2023-03-19T10:15:48.587Z,35.90
2023-03-19T10:16:48.516Z,35.40
2023-03-19T10:17:48.490Z,35.70
2023-03-19T10:18:48.686Z,35.40
2023-03-19T10:19:48.462Z,34.20
2023-03-19T10:20:48.441Z,35.00
2023-03-19T10:21:48.438Z,35.30
2023-03-19T10:22:48.442Z,35.60
2023-03-19T10:23:48.441Z,34.00
2023-03-19T10:24:48.394Z,33.10
2023-03-19T10:25:48.388Z,33.10
2023-03-19T10:26:48.379Z,33.80
2023-03-19T10:27:48.394Z,33.20
2023-03-19T10:28:48.364Z,32.00
2023-03-19T10:29:48.352Z,31.70
2023-03-19T10:30:48.337Z,32.90
2023-03-19T10:31:48.381Z,32.90
2023-03-19T10:32:48.341Z,32.90
2023-03-19T10:33:48.347Z,32.30
2023-03-19T10:34:48.288Z,34.30
2023-03-19T10:35:48.307Z,34.70
2023-03-19T10:36:48.266Z,34.10
2023-03-19T10:37:48.257Z,35.00
2023-03-19T10:38:48.250Z,34.10
2023-03-19T10:39:48.265Z,33.60
2023-03-19T10:40:48.220Z,33.50
2023-03-19T10:41:48.229Z,34.90
2023-03-19T10:42:48.194Z,36.60
2023-03-19T10:43:48.190Z,36.60
2023-03-19T10:44:48.182Z,38.30
2023-03-19T10:45:48.402Z,37.40
2023-03-19T10:46:48.161Z,37.50
2023-03-19T10:47:48.157Z,37.30
2023-03-19T10:48:48.131Z,35.40
2023-03-19T10:49:48.125Z,36.10
2023-03-19T10:50:48.111Z,36.00
2023-03-19T10:51:48.139Z,36.80
2023-03-19T10:52:48.085Z,37.40
2023-03-19T10:53:48.086Z,37.60
2023-03-19T10:54:48.071Z,36.20
2023-03-19T10:55:48.068Z,36.50
2023-03-19T10:56:48.090Z,36.00
2023-03-19T10:57:48.052Z,35.20
2023-03-19T10:58:48.029Z,35.20
2023-03-19T10:59:48.020Z,35.30
2023-03-19T11:00:48.058Z,34.50
2023-03-19T11:01:47.994Z,35.40
2023-03-19T11:02:48.009Z,35.20
2023-03-19T11:03:47.991Z,35.70
2023-03-19T11:04:47.960Z,33.80
2023-03-19T11:05:47.948Z,34.50
2023-03-19T11:06:47.950Z,34.00
2023-03-19T11:07:47.922Z,33.80
2023-03-19T11:08:47.933Z,33.80
2023-03-19T11:09:47.906Z,33.60
2023-03-19T11:10:47.903Z,34.00
2023-03-19T11:11:50.537Z,34.30
2023-03-19T11:12:47.871Z,33.50
2023-03-19T11:13:47.896Z,34.20
2023-03-19T11:14:47.883Z,34.70
2023-03-19T11:15:47.856Z,34.20
2023-03-19T11:16:47.845Z,34.50
2023-03-19T11:17:47.825Z,35.00
2023-03-19T11:18:47.823Z,33.10
2023-03-19T11:19:47.792Z,32.30
2023-03-19T11:20:47.807Z,31.10
2023-03-19T11:21:47.767Z,31.20
2023-03-19T11:22:47.771Z,30.30
2023-03-19T11:23:47.746Z,30.50
2023-03-19T11:24:47.726Z,30.20
2023-03-19T11:25:47.753Z,29.70
2023-03-19T11:26:47.723Z,30.30
2023-03-19T11:27:47.704Z,31.00
2023-03-19T11:28:47.711Z,29.60
2023-03-19T11:29:47.683Z,30.00
2023-03-19T11:30:47.657Z,28.90
2023-03-19T11:31:47.717Z,28.70
2023-03-19T11:32:47.702Z,28.70
2023-03-19T11:33:47.636Z,29.60
2023-03-19T11:34:47.612Z,31.00
2023-03-19T11:35:47.626Z,29.70
2023-03-19T11:36:47.591Z,28.90
2023-03-19T11:37:47.589Z,28.40
2023-03-19T11:38:47.590Z,29.40
2023-03-19T11:39:47.561Z,28.50
2023-03-19T11:40:47.552Z,30.00
2023-03-19T11:41:47.549Z,30.90
2023-03-19T11:42:47.525Z,31.70
2023-03-19T11:43:47.551Z,29.70
2023-03-19T11:44:47.520Z,27.30
2023-03-19T11:45:47.624Z,28.20
2023-03-19T11:46:47.499Z,26.70
2023-03-19T11:47:47.485Z,28.80
2023-03-19T11:48:47.490Z,29.10
2023-03-19T11:49:47.473Z,28.90
2023-03-19T11:50:48.374Z,30.90
2023-03-19T11:51:47.434Z,27.00
2023-03-19T11:52:47.418Z,26.40
2023-03-19T11:53:47.405Z,26.80
2023-03-19T11:54:47.413Z,26.30
2023-03-19T11:55:47.415Z,25.60
2023-03-19T11:56:47.376Z,26.40
2023-03-19T11:57:47.363Z,28.20
2023-03-19T11:58:47.357Z,30.00
2023-03-19T11:59:47.342Z,30.10
2023-03-19T12:00:47.363Z,29.10
2023-03-19T12:01:47.359Z,28.60
2023-03-19T12:02:47.407Z,29.90
2023-03-19T12:03:47.435Z,30.50
2023-03-19T12:04:47.287Z,30.40
2023-03-19T12:05:47.310Z,30.40
2023-03-19T12:06:47.275Z,31.20
2023-03-19T12:07:47.664Z,30.60
2023-03-19T12:08:47.242Z,29.80
2023-03-19T12:09:47.234Z,30.90
2023-03-19T12:10:47.224Z,30.70
2023-03-19T12:11:47.206Z,30.60
2023-03-19T12:12:47.196Z,30.20
2023-03-19T12:13:47.206Z,31.30
2023-03-19T12:14:47.175Z,29.70
2023-03-19T12:15:47.166Z,28.40
2023-03-19T12:16:47.165Z,27.00
2023-03-19T12:17:47.156Z,27.80
2023-03-19T12:18:47.419Z,27.50
2023-03-19T12:19:47.119Z,27.00
2023-03-19T12:20:47.116Z,27.00
2023-03-19T12:21:47.095Z,27.00
2023-03-19T12:22:47.100Z,26.80
2023-03-19T12:23:47.072Z,27.40
2023-03-19T12:24:47.524Z,27.30
2023-03-19T12:25:47.064Z,25.20
2023-03-19T12:26:47.064Z,24.80
2023-03-19T12:27:47.032Z,24.60
2023-03-19T12:28:47.022Z,24.20
2023-03-19T12:29:47.005Z,25.70
2023-03-19T12:30:47.411Z,24.10
2023-03-19T12:31:46.981Z,25.00
2023-03-19T12:32:46.994Z,25.80
2023-03-19T12:33:46.958Z,25.20
2023-03-19T12:34:46.950Z,25.20
2023-03-19T12:35:46.938Z,24.40
2023-03-19T12:36:47.216Z,24.10
2023-03-19T12:37:46.919Z,23.10
2023-03-19T12:38:46.909Z,23.90
2023-03-19T12:39:46.886Z,23.30
2023-03-19T12:40:46.873Z,23.30
2023-03-19T12:41:46.880Z,22.90
2023-03-19T12:42:47.073Z,22.30
2023-03-19T12:43:46.840Z,21.90
2023-03-19T12:44:46.838Z,20.30
2023-03-19T12:45:46.816Z,21.00
2023-03-19T12:46:46.834Z,19.40
2023-03-19T12:47:46.807Z,20.00
2023-03-19T12:48:46.806Z,18.40
2023-03-19T12:49:46.782Z,17.80
2023-03-19T12:50:46.776Z,17.00
2023-03-19T12:51:46.759Z,15.90
2023-03-19T12:52:46.761Z,15.60
2023-03-19T12:53:46.795Z,15.10
2023-03-19T12:54:46.788Z,15.00